createdAt,value
2022-10-13T00:01:13.128Z,12.18
2022-10-13T00:03:40.678Z,12.48
2022-10-13T00:06:09.401Z,10.93
2022-10-13T00:08:38.049Z,10.85
2022-10-13T00:11:14.243Z,12.00
2022-10-13T00:13:41.668Z,12.55
2022-10-13T00:16:09.046Z,11.85
2022-10-13T00:18:35.760Z,11.70
2022-10-13T00:21:07.941Z,11.35
2022-10-13T00:23:35.231Z,12.38
2022-10-13T00:26:04.813Z,12.75
2022-10-13T00:28:31.790Z,12.52
2022-10-13T00:30:58.947Z,12.40
2022-10-13T00:33:25.854Z,11.88
2022-10-13T00:35:52.613Z,12.50
2022-10-13T00:38:21.482Z,13.45
2022-10-13T00:40:54.513Z,12.20
2022-10-13T00:43:27.419Z,11.80
2022-10-13T00:45:54.380Z,11.95
2022-10-13T00:48:26.083Z,11.70
2022-10-13T00:50:53.813Z,12.98
2022-10-13T00:53:23.491Z,11.32
2022-10-13T00:55:52.300Z,12.07
2022-10-13T00:58:23.685Z,13.38
2022-10-13T01:00:52.841Z,11.35
2022-10-13T01:03:21.185Z,11.10
2022-10-13T01:05:50.004Z,10.73
2022-10-13T01:08:18.040Z,10.32
2022-10-13T01:11:13.399Z,10.45
2022-10-13T01:13:55.049Z,9.48
2022-10-13T01:16:40.895Z,10.85
2022-10-13T01:19:28.909Z,15.60
2022-10-13T01:22:24.705Z,16.05
2022-10-13T01:25:07.718Z,21.88
2022-10-13T01:27:53.396Z,10.43
2022-10-13T01:30:22.513Z,10.88
2022-10-13T01:33:01.463Z,13.65
2022-10-13T01:35:47.891Z,9.75
2022-10-13T01:38:35.008Z,9.13
2022-10-13T01:41:26.440Z,9.23
2022-10-13T01:44:16.112Z,9.13
2022-10-13T01:46:51.588Z,9.43
2022-10-13T01:49:20.985Z,9.48
2022-10-13T01:51:48.832Z,8.65
2022-10-13T01:54:15.769Z,8.82
2022-10-13T01:56:42.497Z,13.45
2022-10-13T01:59:14.385Z,9.30
2022-10-13T02:01:48.445Z,19.63
2022-10-13T02:04:37.184Z,21.27
2022-10-13T02:07:22.964Z,9.73
2022-10-13T02:10:20.398Z,8.63
2022-10-13T02:12:51.065Z,14.45
2022-10-13T02:15:23.497Z,13.82
2022-10-13T02:17:52.154Z,11.93
2022-10-13T02:20:21.095Z,11.80
2022-10-13T02:22:54.130Z,9.00
2022-10-13T02:25:20.903Z,9.32
2022-10-13T02:27:50.008Z,10.60
2022-10-13T02:30:26.171Z,11.70
2022-10-13T02:32:52.904Z,10.13
2022-10-13T02:35:19.565Z,11.73
2022-10-13T02:37:46.344Z,10.50
2022-10-13T02:40:13.702Z,20.98
2022-10-13T02:42:40.460Z,32.03
2022-10-13T02:45:08.186Z,33.08
2022-10-13T02:47:34.925Z,29.90
2022-10-13T02:50:04.824Z,14.75
2022-10-13T02:52:31.672Z,12.98
2022-10-13T02:54:58.335Z,11.82
2022-10-13T02:57:25.051Z,11.38
2022-10-13T02:59:52.447Z,29.38
2022-10-13T03:02:19.837Z,15.65
2022-10-13T03:04:47.169Z,14.45
2022-10-13T03:07:13.895Z,13.40
2022-10-13T03:09:40.710Z,14.75
2022-10-13T03:12:07.608Z,20.17
2022-10-13T03:14:35.485Z,22.50
2022-10-13T03:17:02.355Z,19.55
2022-10-13T03:19:29.001Z,15.07
2022-10-13T03:21:55.708Z,13.35
2022-10-13T03:24:22.523Z,14.10
2022-10-13T03:26:49.250Z,14.32
2022-10-13T03:29:20.051Z,13.77
2022-10-13T03:31:46.708Z,13.40
2022-10-13T03:34:16.255Z,12.55
2022-10-13T03:36:43.450Z,15.25
2022-10-13T03:39:10.069Z,14.30
2022-10-13T03:41:36.798Z,11.90
2022-10-13T03:44:03.529Z,12.02
2022-10-13T03:46:30.720Z,12.27
2022-10-13T03:48:58.682Z,12.48
2022-10-13T03:51:25.532Z,12.25
2022-10-13T03:53:52.685Z,12.68
2022-10-13T03:56:25.128Z,12.25
2022-10-13T03:58:55.792Z,12.38
2022-10-13T04:01:25.966Z,12.02
2022-10-13T04:03:54.633Z,11.65
2022-10-13T04:06:22.285Z,11.75
2022-10-13T04:08:49.685Z,13.45
2022-10-13T04:11:16.908Z,11.50
2022-10-13T04:13:44.865Z,11.63
2022-10-13T04:16:31.790Z,11.60
2022-10-13T04:19:01.860Z,11.10
2022-10-13T04:21:30.399Z,10.98
2022-10-13T04:23:59.221Z,16.48
2022-10-13T04:26:28.118Z,13.95
2022-10-13T04:28:55.993Z,12.02
2022-10-13T04:31:23.703Z,11.27
2022-10-13T04:33:51.159Z,10.60
2022-10-13T04:36:18.215Z,18.95
2022-10-13T04:38:46.582Z,13.35
2022-10-13T04:41:16.113Z,10.73
2022-10-13T04:43:43.330Z,10.60
2022-10-13T04:46:13.922Z,10.93
2022-10-13T04:48:40.652Z,19.08
2022-10-13T04:51:09.892Z,18.30
2022-10-13T04:54:01.059Z,11.30
2022-10-13T04:56:28.612Z,10.48
2022-10-13T04:58:59.973Z,9.90
2022-10-13T05:01:27.096Z,12.82
2022-10-13T05:04:00.402Z,12.88
2022-10-13T05:06:30.267Z,11.63
2022-10-13T05:08:57.340Z,12.48
2022-10-13T05:11:26.535Z,10.77
2022-10-13T05:13:53.480Z,12.07
2022-10-13T05:16:21.222Z,13.00
2022-10-13T05:18:54.711Z,12.70
2022-10-13T05:21:27.349Z,13.90
2022-10-13T05:23:55.852Z,14.73
2022-10-13T05:26:28.820Z,12.35
2022-10-13T05:28:56.952Z,11.35
2022-10-13T05:31:26.730Z,12.63
2022-10-13T05:33:53.739Z,10.88
2022-10-13T05:36:31.354Z,11.27
2022-10-13T05:39:00.506Z,11.75
2022-10-13T05:41:28.897Z,12.25
2022-10-13T05:44:02.002Z,12.23
2022-10-13T05:46:28.905Z,14.68
2022-10-13T05:48:55.756Z,15.02
2022-10-13T05:51:38.102Z,13.55
2022-10-13T05:54:08.675Z,13.13
2022-10-13T05:56:44.633Z,13.73
2022-10-13T05:59:15.658Z,11.40
2022-10-13T06:01:47.430Z,12.23
2022-10-13T06:04:20.368Z,12.68
2022-10-13T06:06:49.055Z,13.05
2022-10-13T06:09:16.208Z,10.90
2022-10-13T06:11:43.443Z,10.63
2022-10-13T06:14:10.180Z,11.70
2022-10-13T06:16:37.036Z,11.90
2022-10-13T06:19:05.525Z,11.57
2022-10-13T06:21:35.133Z,11.50
2022-10-13T06:24:02.234Z,11.75
2022-10-13T06:26:28.933Z,11.80
2022-10-13T06:28:59.502Z,11.82
2022-10-13T06:31:27.536Z,11.38
2022-10-13T06:33:54.712Z,12.15
2022-10-13T06:36:21.635Z,11.75
2022-10-13T06:38:48.271Z,10.68
2022-10-13T06:41:17.160Z,11.77
2022-10-13T06:43:44.132Z,12.30
2022-10-13T06:46:11.865Z,12.30
2022-10-13T06:48:38.686Z,13.65
2022-10-13T06:51:07.693Z,12.25
2022-10-13T06:53:34.626Z,27.85
2022-10-13T06:56:04.216Z,14.52
2022-10-13T06:58:31.032Z,12.20
2022-10-13T07:01:23.030Z,12.35
2022-10-13T07:03:50.715Z,11.80
2022-10-13T07:06:20.868Z,12.68
2022-10-13T07:08:49.439Z,11.02
2022-10-13T07:11:17.244Z,10.32
2022-10-13T07:13:48.395Z,11.00
2022-10-13T07:16:15.606Z,10.88
2022-10-13T07:18:42.439Z,10.65
2022-10-13T07:21:09.469Z,10.32
2022-10-13T07:23:36.154Z,12.90
2022-10-13T07:26:07.703Z,14.10
2022-10-13T07:28:34.751Z,12.60
2022-10-13T07:31:08.107Z,11.20
2022-10-13T07:33:37.366Z,11.93
2022-10-13T07:36:04.786Z,16.98
2022-10-13T07:38:31.498Z,12.95
2022-10-13T07:41:05.680Z,10.55
2022-10-13T07:43:32.854Z,9.82
2022-10-13T07:46:07.638Z,10.50
2022-10-13T07:48:35.445Z,9.38
2022-10-13T07:51:12.907Z,12.13
2022-10-13T07:53:41.771Z,11.50
2022-10-13T07:56:11.710Z,10.38
2022-10-13T07:58:40.140Z,9.65
2022-10-13T08:01:07.725Z,10.77
2022-10-13T08:03:40.225Z,11.40
2022-10-13T08:06:09.307Z,10.60
2022-10-13T08:08:36.325Z,11.27
2022-10-13T08:11:05.090Z,10.93
2022-10-13T08:13:31.872Z,10.25
2022-10-13T08:16:05.887Z,10.73
2022-10-13T08:18:32.571Z,10.20
2022-10-13T08:23:50.680Z,10.07
2022-10-13T08:26:23.807Z,10.77
2022-10-13T08:29:09.468Z,10.23
2022-10-13T08:31:38.809Z,10.23
2022-10-13T08:34:05.778Z,10.38
2022-10-13T08:36:32.512Z,10.00
2022-10-13T08:38:59.210Z,10.43
2022-10-13T08:41:29.965Z,12.80
2022-10-13T08:47:12.238Z,13.75
2022-10-13T08:49:41.195Z,14.68
2022-10-13T08:52:18.552Z,13.65
2022-10-13T08:54:45.796Z,13.77
2022-10-13T08:57:12.547Z,14.20
2022-10-13T08:59:39.369Z,13.75
2022-10-13T09:02:31.425Z,14.40
2022-10-13T09:05:03.311Z,11.98
2022-10-13T09:07:35.085Z,13.30
2022-10-13T09:10:01.867Z,13.95
2022-10-13T09:12:28.632Z,14.18
2022-10-13T09:15:01.845Z,13.68
2022-10-13T09:17:31.124Z,13.00
2022-10-13T09:20:07.155Z,14.45
2022-10-13T09:22:39.295Z,14.38
2022-10-13T09:25:10.890Z,14.25
2022-10-13T09:28:01.695Z,14.00
2022-10-13T09:30:39.063Z,14.32
2022-10-13T09:33:09.017Z,14.65
2022-10-13T09:35:38.152Z,13.75
2022-10-13T09:38:13.251Z,14.63
2022-10-13T09:40:41.000Z,14.75
2022-10-13T09:43:28.995Z,14.32
2022-10-13T09:45:56.953Z,14.20
2022-10-13T09:48:30.706Z,14.35
2022-10-13T09:50:57.722Z,14.32
2022-10-13T09:53:28.815Z,13.43
2022-10-13T09:56:18.310Z,13.60
2022-10-13T09:58:54.191Z,12.40
2022-10-13T10:01:27.903Z,14.15
2022-10-13T10:03:55.426Z,15.25
2022-10-13T10:06:25.424Z,13.18
2022-10-13T10:09:22.349Z,12.95
2022-10-13T10:11:53.432Z,11.23
2022-10-13T10:14:26.407Z,11.77
2022-10-13T10:17:23.444Z,12.07
2022-10-13T10:20:27.646Z,12.25
2022-10-13T10:23:13.544Z,12.60
2022-10-13T10:25:45.599Z,12.15
2022-10-13T10:28:15.017Z,15.73
2022-10-13T10:30:51.595Z,14.20
2022-10-13T10:33:26.263Z,12.68
2022-10-13T10:36:02.564Z,12.68
2022-10-13T10:38:46.574Z,11.70
2022-10-13T10:41:16.084Z,11.27
2022-10-13T10:43:43.766Z,13.98
2022-10-13T10:46:23.483Z,13.77
2022-10-13T10:48:55.176Z,13.75
2022-10-13T10:51:27.805Z,13.88
2022-10-13T10:54:23.630Z,14.48
2022-10-13T10:57:05.851Z,13.00
2022-10-13T11:00:15.688Z,15.45
2022-10-13T11:03:03.965Z,14.15
2022-10-13T11:05:59.877Z,13.60
2022-10-13T11:08:47.827Z,15.25
2022-10-13T11:11:26.704Z,13.95
2022-10-13T11:14:07.023Z,13.85
2022-10-13T11:16:34.934Z,12.27
2022-10-13T11:19:06.050Z,13.65
2022-10-13T11:21:54.845Z,13.77
2022-10-13T11:24:52.252Z,13.40
2022-10-13T11:27:18.915Z,14.77
2022-10-13T11:29:57.827Z,12.75
2022-10-13T11:32:41.113Z,14.15
2022-10-13T11:35:08.262Z,13.27
2022-10-13T11:38:06.105Z,13.63
2022-10-13T11:41:06.169Z,13.23
2022-10-13T11:43:47.636Z,11.50
2022-10-13T11:46:20.107Z,12.85
2022-10-13T11:49:20.624Z,11.82
2022-10-13T11:51:55.826Z,11.75
2022-10-13T11:54:37.198Z,10.35
2022-10-13T11:57:18.612Z,11.63
2022-10-13T11:59:47.918Z,11.90
2022-10-13T12:02:18.877Z,11.98
2022-10-13T12:05:05.140Z,12.32
2022-10-13T12:07:41.530Z,12.93
2022-10-13T12:10:24.329Z,13.80
2022-10-13T12:12:51.582Z,11.75
2022-10-13T12:15:32.134Z,13.63
2022-10-13T12:17:59.008Z,13.05
2022-10-13T12:20:32.447Z,12.68
2022-10-13T12:22:59.241Z,10.88
2022-10-13T12:25:30.112Z,12.80
2022-10-13T12:28:01.113Z,10.95
2022-10-13T12:30:36.926Z,10.00
2022-10-13T12:33:18.003Z,11.75
2022-10-13T12:35:44.779Z,11.20
2022-10-13T12:38:19.388Z,11.55
2022-10-13T12:40:49.012Z,11.32
2022-10-13T12:43:19.670Z,11.70
2022-10-13T12:45:48.888Z,11.80
2022-10-13T12:48:49.944Z,10.93
2022-10-13T12:51:28.000Z,10.45
2022-10-13T12:53:55.094Z,11.48
2022-10-13T12:56:30.751Z,10.52
2022-10-13T12:58:58.187Z,10.48
2022-10-13T13:01:34.132Z,11.27
2022-10-13T13:04:21.050Z,11.10
2022-10-13T13:07:02.675Z,10.77
2022-10-13T13:09:34.366Z,10.40
2022-10-13T13:12:23.037Z,9.98
2022-10-13T13:14:54.718Z,10.30
2022-10-13T13:17:52.997Z,9.35
2022-10-13T13:20:29.798Z,11.23
2022-10-13T13:22:57.359Z,11.15
2022-10-13T13:25:24.828Z,10.98
2022-10-13T13:27:52.339Z,10.73
2022-10-13T13:30:23.000Z,10.20
2022-10-13T13:32:50.458Z,10.52
2022-10-13T13:35:17.457Z,10.45
2022-10-13T13:37:50.497Z,10.57
2022-10-13T13:40:23.149Z,9.40
2022-10-13T13:42:50.283Z,10.32
2022-10-13T13:45:20.778Z,10.30
2022-10-13T13:47:47.958Z,10.65
2022-10-13T13:50:22.887Z,9.60
2022-10-13T13:52:59.168Z,8.98
2022-10-13T13:55:26.920Z,9.02
2022-10-13T13:57:53.663Z,8.93
2022-10-13T14:00:20.781Z,9.55
2022-10-13T14:02:53.209Z,8.02
2022-10-13T14:05:20.019Z,9.00
2022-10-13T14:07:46.748Z,8.60
2022-10-13T14:10:13.779Z,8.05
2022-10-13T14:12:40.586Z,8.25
2022-10-13T14:15:08.069Z,8.38
2022-10-13T14:17:34.830Z,8.32
2022-10-13T14:20:01.582Z,8.82
2022-10-13T14:22:28.364Z,8.60
2022-10-13T14:24:55.054Z,8.90
2022-10-13T14:27:21.823Z,8.38
2022-10-13T14:29:48.549Z,8.52
2022-10-13T14:32:15.791Z,7.60
2022-10-13T14:34:42.811Z,7.88
2022-10-13T14:37:09.878Z,9.18
2022-10-13T14:39:39.104Z,13.45
2022-10-13T14:42:06.785Z,10.57
2022-10-13T14:44:33.799Z,8.70
2022-10-13T14:47:00.552Z,10.18
2022-10-13T14:49:27.336Z,9.27
2022-10-13T14:51:54.289Z,10.32
2022-10-13T14:54:21.029Z,7.97
2022-10-13T14:56:47.923Z,9.30
2022-10-13T14:59:14.762Z,9.50
2022-10-13T15:01:42.912Z,9.35
2022-10-13T15:04:10.219Z,9.13
2022-10-13T15:06:39.292Z,9.35
2022-10-13T15:11:41.198Z,8.82
2022-10-13T15:14:09.700Z,8.88
2022-10-13T15:16:37.796Z,8.93
2022-10-13T15:19:04.914Z,7.45
2022-10-13T15:21:31.722Z,7.70
2022-10-13T15:23:58.430Z,8.00
2022-10-13T15:26:25.136Z,7.72
2022-10-13T15:28:53.500Z,8.27
2022-10-13T15:31:22.406Z,7.60
2022-10-13T15:33:51.826Z,8.20
2022-10-13T15:36:22.165Z,7.93
2022-10-13T15:38:48.959Z,7.90
2022-10-13T15:41:16.167Z,7.82
2022-10-13T15:43:43.298Z,7.70
2022-10-13T15:46:21.136Z,7.68
2022-10-13T15:48:49.546Z,8.90
2022-10-13T15:51:19.520Z,8.35
2022-10-13T15:53:49.337Z,8.30
2022-10-13T15:56:16.723Z,9.00
2022-10-13T15:58:43.735Z,9.10
2022-10-13T16:01:12.406Z,9.05
2022-10-13T16:03:39.658Z,8.75
2022-10-13T16:06:08.614Z,9.68
2022-10-13T16:08:40.165Z,9.43
2022-10-13T16:11:11.959Z,9.23
2022-10-13T16:13:39.430Z,9.98
2022-10-13T16:16:06.529Z,13.63
2022-10-13T16:18:36.132Z,10.88
2022-10-13T16:21:19.022Z,10.60
2022-10-13T16:23:47.333Z,10.35
2022-10-13T16:26:15.322Z,8.45
2022-10-13T16:28:42.073Z,9.43
2022-10-13T16:31:14.544Z,8.93
2022-10-13T16:33:45.290Z,8.60
2022-10-13T16:36:15.460Z,7.88
2022-10-13T16:38:43.582Z,9.90
2022-10-13T16:41:13.917Z,9.93
2022-10-13T16:43:42.192Z,10.15
2022-10-13T16:46:13.254Z,8.98
2022-10-13T16:48:41.279Z,11.20
2022-10-13T16:51:10.568Z,13.05
2022-10-13T16:53:38.651Z,18.70
2022-10-13T16:56:06.734Z,11.55
2022-10-13T16:58:34.133Z,11.32
2022-10-13T17:01:11.120Z,13.40
2022-10-13T17:03:39.336Z,15.88
2022-10-13T17:06:06.934Z,15.52
2022-10-13T17:08:34.001Z,14.90
2022-10-13T17:11:03.440Z,12.05
2022-10-13T17:13:31.549Z,12.93
2022-10-13T17:15:58.938Z,12.65
2022-10-13T17:18:27.660Z,12.20
2022-10-13T17:20:57.177Z,12.07
2022-10-13T17:23:24.647Z,21.50
2022-10-13T17:25:52.400Z,33.17
2022-10-13T17:28:19.901Z,21.17
2022-10-13T17:31:00.394Z,15.13
2022-10-13T17:33:28.469Z,14.68
2022-10-13T17:36:06.534Z,12.90
2022-10-13T17:38:34.354Z,12.90
2022-10-13T17:41:03.378Z,17.83
2022-10-13T17:43:30.948Z,22.85
2022-10-13T17:46:35.031Z,16.90
2022-10-13T17:49:00.655Z,14.10
2022-10-13T17:51:27.947Z,12.05
2022-10-13T17:53:55.024Z,15.85
2022-10-13T17:56:24.122Z,21.25
2022-10-13T17:58:51.206Z,21.98
2022-10-13T18:01:24.260Z,20.27
2022-10-13T18:03:57.397Z,18.50
2022-10-13T18:06:43.862Z,19.95
2022-10-13T18:09:24.151Z,18.10
2022-10-13T18:11:53.805Z,16.52
2022-10-13T18:14:22.627Z,16.80
2022-10-13T18:16:50.918Z,16.38
2022-10-13T18:19:18.068Z,16.80
2022-10-13T18:21:44.871Z,15.32
2022-10-13T18:24:12.064Z,18.33
2022-10-13T18:26:39.560Z,16.67
2022-10-13T18:29:07.983Z,16.15
2022-10-13T18:31:36.747Z,15.57
2022-10-13T18:34:06.559Z,18.48
2022-10-13T18:36:34.802Z,18.35
2022-10-13T18:39:07.805Z,17.52
2022-10-13T18:41:35.860Z,18.23
2022-10-13T18:44:03.946Z,18.35
2022-10-13T18:46:32.068Z,20.45
2022-10-13T18:48:58.878Z,22.13
2022-10-13T18:51:26.178Z,22.67
2022-10-13T18:53:52.978Z,20.58
2022-10-13T18:56:26.314Z,17.25
2022-10-13T18:58:59.474Z,18.38
2022-10-13T19:01:28.885Z,17.10
2022-10-13T19:03:56.208Z,17.50
2022-10-13T19:06:27.038Z,22.15
2022-10-13T19:09:02.542Z,21.52
2022-10-13T19:11:30.524Z,20.92
2022-10-13T19:13:58.615Z,21.50
2022-10-13T19:16:27.559Z,20.35
2022-10-13T19:18:54.828Z,19.38
2022-10-13T19:21:22.945Z,20.75
2022-10-13T19:23:50.230Z,18.65
2022-10-13T19:26:24.475Z,18.38
2022-10-13T19:28:56.081Z,19.08
2022-10-13T19:31:24.786Z,21.60
2022-10-13T19:33:54.691Z,19.67
2022-10-13T19:36:25.854Z,20.60
2022-10-13T19:38:54.672Z,19.38
2022-10-13T19:41:21.923Z,26.08
2022-10-13T19:43:49.385Z,31.13
2022-10-13T19:46:17.010Z,30.65
2022-10-13T19:48:44.798Z,22.10
2022-10-13T19:51:11.981Z,21.33
2022-10-13T19:53:39.900Z,20.13
2022-10-13T19:56:07.589Z,19.33
2022-10-13T19:58:34.674Z,18.10
2022-10-13T20:01:04.580Z,18.13
2022-10-13T20:03:31.856Z,17.70
2022-10-13T20:05:59.095Z,19.77
2022-10-13T20:08:26.018Z,17.40
2022-10-13T20:10:52.782Z,17.08
2022-10-13T20:13:19.511Z,16.92
2022-10-13T20:15:47.862Z,17.52
2022-10-13T20:18:14.684Z,22.83
2022-10-13T20:20:42.006Z,21.23
2022-10-13T20:23:09.106Z,24.02
2022-10-13T20:25:38.921Z,18.67
2022-10-13T20:28:06.375Z,18.30
2022-10-13T20:30:33.396Z,15.90
2022-10-13T20:33:00.513Z,13.07
2022-10-13T20:35:27.751Z,14.18
2022-10-13T20:37:54.858Z,13.27
2022-10-13T20:40:21.983Z,13.15
2022-10-13T20:42:50.883Z,12.93
2022-10-13T20:45:18.138Z,11.93
2022-10-13T20:47:44.984Z,13.27
2022-10-13T20:50:11.678Z,14.13
2022-10-13T20:52:38.654Z,14.85
2022-10-13T20:55:05.598Z,14.35
2022-10-13T20:57:35.204Z,12.70
2022-10-13T21:00:02.205Z,12.93
2022-10-13T21:02:28.862Z,12.45
2022-10-13T21:04:55.563Z,13.05
2022-10-13T21:07:22.692Z,14.25
2022-10-13T21:09:53.608Z,12.25
2022-10-13T21:12:21.535Z,11.32
2022-10-13T21:14:48.431Z,13.00
2022-10-13T21:17:15.290Z,12.95
2022-10-13T21:19:41.950Z,13.27
2022-10-13T21:22:08.649Z,12.63
2022-10-13T21:24:35.352Z,12.43
2022-10-13T21:27:02.064Z,12.45
2022-10-13T21:29:29.149Z,15.20
2022-10-13T21:31:55.972Z,12.80
2022-10-13T21:34:22.742Z,12.45
2022-10-13T21:36:49.527Z,11.57
2022-10-13T21:39:16.274Z,12.40
2022-10-13T21:41:43.035Z,11.32
2022-10-13T21:44:14.826Z,12.30
2022-10-13T21:46:41.634Z,11.07
2022-10-13T21:49:09.318Z,10.43
2022-10-13T21:51:39.356Z,9.13
2022-10-13T21:54:09.355Z,11.68
2022-10-13T21:56:36.947Z,9.82
2022-10-13T21:59:04.471Z,9.50
2022-10-13T22:01:31.168Z,9.02
2022-10-13T22:04:00.764Z,8.13
2022-10-13T22:06:28.875Z,8.20
2022-10-13T22:08:57.336Z,10.45
2022-10-13T22:11:27.150Z,11.00
2022-10-13T22:13:55.698Z,10.82
2022-10-13T22:16:24.858Z,10.13
2022-10-13T22:18:53.834Z,10.70
2022-10-13T22:21:23.590Z,9.73
2022-10-13T22:23:50.350Z,9.48
2022-10-13T22:26:18.435Z,11.00
2022-10-13T22:28:48.075Z,10.93
2022-10-13T22:31:15.134Z,10.38
2022-10-13T22:33:43.570Z,9.05
2022-10-13T22:36:18.218Z,8.95
2022-10-13T22:38:46.663Z,9.23
2022-10-13T22:41:15.010Z,12.02
2022-10-13T22:43:44.065Z,10.40
2022-10-13T22:46:12.944Z,10.88
2022-10-13T22:48:41.072Z,10.52
2022-10-13T22:51:14.009Z,11.35
2022-10-13T22:53:40.692Z,10.40
2022-10-13T22:56:09.398Z,10.60
2022-10-13T22:58:37.093Z,10.02
2022-10-13T23:01:13.329Z,10.10
2022-10-13T23:03:40.758Z,8.82
2022-10-13T23:06:12.301Z,8.80
2022-10-13T23:08:39.073Z,10.40
2022-10-13T23:11:05.760Z,9.93
2022-10-13T23:13:32.469Z,10.02
2022-10-13T23:16:07.532Z,9.70
2022-10-13T23:18:38.293Z,9.45
2022-10-13T23:21:10.570Z,8.68
2022-10-13T23:23:37.238Z,8.40
2022-10-13T23:26:08.924Z,8.73
2022-10-13T23:28:36.255Z,8.18
2022-10-13T23:31:05.075Z,8.88
2022-10-13T23:33:32.133Z,9.40
2022-10-13T23:36:00.538Z,8.80
2022-10-13T23:38:29.284Z,8.82
2022-10-13T23:41:08.698Z,15.05
2022-10-13T23:43:36.531Z,16.00
2022-10-13T23:46:03.857Z,11.50
2022-10-13T23:48:30.939Z,10.60
2022-10-13T23:50:58.058Z,10.82
2022-10-13T23:53:24.912Z,9.35
2022-10-13T23:55:51.587Z,18.58
2022-10-13T23:58:25.207Z,15.73
